Skamokawa, Washington
Current Conditions -  °F | °C
As of 11:55 AM on Sunday 23 Nov 2014 (Local Time) from KAST Reporting Station
Overcast Overcast  
Wind Chill: 54°   Ceiling: 4600
Heat Index: 54°   Visibility: 9mi
Dew Point: 50°   Wind: 10mph
Humidity: 86%   Direction: 260°W
Pressure: 30.22"   Gusts: NA
Location:  46.27°N, 123.46°W
Report Text: KAST 231955Z AUTO 26009KT 9SM OVC046 12/10 A3022 RMK AO2 PK WND 21028/1858 LTG DSNT SE-SW RAB08E42 SLP231 P0001 T01220100
Loading
Personal Weather Stations






























Interactive Weather Map New forecast layout! Learn more

10-Day Weather Forecast

Advertisements
Track Severe Weather on mobile